Time;durP1;ratioP1;P1;durP2;ratioP2;P2;SDS_P1;SDS_P2;PMS_P1;PMS_P2;Temp;Humidity;BMP_temperature;BMP_pressure;BME280_temperature;BME280_humidity;BME280_pressure;Samples;Min_cycle;Max_cycle;Signal;HPM_P1;HPM_P2
2023/03/02 00:01:29;;;;;;;61.20;40.90;;;3.40;99.90;;;;;;5088192;28;20491;-79
2023/03/02 00:03:57;;;;;;;64.47;40.20;;;3.30;99.90;;;;;;5083267;28;20479;-79
2023/03/02 00:06:24;;;;;;;63.72;40.90;;;3.40;99.90;;;;;;5090317;28;20469;-79
2023/03/02 00:08:51;;;;;;;62.22;39.25;;;3.30;99.90;;;;;;5087768;28;20048;-79
2023/03/02 00:11:16;;;;;;;62.15;40.95;;;3.30;99.90;;;;;;5088803;28;20078;-79
2023/03/02 00:13:43;;;;;;;64.43;39.42;;;3.40;99.90;;;;;;5089575;28;20044;-79
2023/03/02 00:16:08;;;;;;;68.20;41.22;;;3.40;99.90;;;;;;5085117;28;20672;-79
2023/03/02 00:18:34;;;;;;;67.57;41.22;;;3.40;99.90;;;;;;5088265;28;20122;-79
2023/03/02 00:21:00;;;;;;;68.32;41.63;;;3.40;99.90;;;;;;5090058;28;20039;-79
2023/03/02 00:23:26;;;;;;;68.57;42.63;;;3.40;99.90;;;;;;5080346;28;20067;-79
2023/03/02 00:25:51;;;;;;;71.63;44.28;;;3.40;99.90;;;;;;5089313;28;20051;-78
2023/03/02 00:28:17;;;;;;;74.72;45.38;;;3.30;99.90;;;;;;5088019;28;20452;-79
2023/03/02 00:30:42;;;;;;;74.70;44.58;;;3.30;99.90;;;;;;5088311;28;20048;-78
2023/03/02 00:33:08;;;;;;;70.20;44.33;;;3.30;99.90;;;;;;5085824;28;20113;-78
2023/03/02 00:35:38;;;;;;;73.93;45.47;;;3.30;99.90;;;;;;5085638;28;20302;-79
2023/03/02 00:38:04;;;;;;;73.10;44.55;;;3.30;99.90;;;;;;5088131;28;20051;-79
2023/03/02 00:40:29;;;;;;;78.20;46.63;;;3.20;99.90;;;;;;5088509;28;20403;-79
2023/03/02 00:42:55;;;;;;;74.95;44.60;;;3.30;99.90;;;;;;5085671;28;20067;-79
2023/03/02 00:45:20;;;;;;;74.78;45.35;;;3.20;99.90;;;;;;5090271;28;20462;-80
2023/03/02 00:47:46;;;;;;;72.80;44.83;;;3.20;99.90;;;;;;5089045;28;20040;-79
2023/03/02 00:50:12;;;;;;;80.60;45.60;;;3.20;99.90;;;;;;5090075;28;20131;-79
2023/03/02 00:52:37;;;;;;;71.03;42.80;;;3.20;99.90;;;;;;5086962;28;20479;-79
2023/03/02 00:55:03;;;;;;;71.82;44.40;;;3.20;99.90;;;;;;5087586;28;20084;-79
2023/03/02 00:57:29;;;;;;;71.82;44.72;;;3.20;99.90;;;;;;5088897;28;20168;-79
2023/03/02 00:59:55;;;;;;;71.50;43.35;;;3.20;99.90;;;;;;5089270;28;20558;-78
2023/03/02 01:02:20;;;;;;;71.90;45.15;;;3.20;99.90;;;;;;5086549;28;20475;-79
2023/03/02 01:04:47;;;;;;;75.47;44.03;;;3.20;99.90;;;;;;5088925;28;20127;-79
2023/03/02 01:07:16;;;;;;;73.82;45.13;;;3.20;99.90;;;;;;5089067;28;20044;-79
2023/03/02 01:09:44;;;;;;;73.40;43.80;;;3.20;99.90;;;;;;5089017;28;20079;-79
2023/03/02 01:12:10;;;;;;;73.10;42.92;;;3.20;99.90;;;;;;5086354;28;20936;-75
2023/03/02 01:14:37;;;;;;;70.82;43.00;;;3.10;99.90;;;;;;5080759;28;20124;-79
2023/03/02 01:17:05;;;;;;;75.03;42.42;;;3.10;99.90;;;;;;5081535;28;20128;-79
2023/03/02 01:19:31;;;;;;;70.40;42.75;;;3.10;99.90;;;;;;5084492;28;20054;-79
2023/03/02 01:21:57;;;;;;;79.78;43.85;;;3.00;99.90;;;;;;5089005;28;20115;-79
2023/03/02 01:24:23;;;;;;;70.88;42.95;;;3.00;99.90;;;;;;5088378;28;20439;-79
2023/03/02 01:26:48;;;;;;;71.32;41.22;;;3.00;99.90;;;;;;5087154;28;20040;-79
2023/03/02 01:29:14;;;;;;;67.65;40.60;;;3.00;99.90;;;;;;5085405;28;20036;-79
2023/03/02 01:31:39;;;;;;;66.03;40.17;;;2.90;99.90;;;;;;5087747;28;20040;-78
2023/03/02 01:34:05;;;;;;;61.85;37.67;;;2.90;99.90;;;;;;5080473;28;20433;-79
2023/03/02 01:36:31;;;;;;;61.33;38.63;;;2.90;99.90;;;;;;5087817;28;20036;-80
2023/03/02 01:38:57;;;;;;;61.35;36.75;;;2.90;99.90;;;;;;5086573;28;20048;-80
2023/03/02 01:41:23;;;;;;;60.10;37.40;;;2.80;99.90;;;;;;5087356;28;20084;-80
2023/03/02 01:43:48;;;;;;;60.58;37.70;;;2.80;99.90;;;;;;5085547;28;20097;-77
2023/03/02 01:46:35;;;;;;;70.20;40.67;;;2.80;99.90;;;;;;5088067;28;20040;-78
2023/03/02 01:49:04;;;;;;;63.35;36.53;;;2.80;99.90;;;;;;5088083;28;20047;-78
2023/03/02 01:51:33;;;;;;;63.10;38.22;;;2.70;99.90;;;;;;5084850;28;20076;-78
2023/03/02 01:54:07;;;;;;;62.88;37.35;;;2.70;99.90;;;;;;5087167;28;20111;-78
2023/03/02 01:56:38;;;;;;;62.22;38.40;;;2.70;99.90;;;;;;5077936;28;20051;-78
2023/03/02 01:59:11;;;;;;;64.13;37.20;;;2.70;99.90;;;;;;5083156;28;20541;-78
2023/03/02 02:01:41;;;;;;;64.57;36.78;;;2.70;99.90;;;;;;5087587;28;20127;-78
2023/03/02 02:04:06;;;;;;;62.13;37.10;;;2.70;99.90;;;;;;5086234;28;20127;-78
2023/03/02 02:06:49;;;;;;;62.60;37.85;;;2.70;99.90;;;;;;5080656;28;20454;-78
2023/03/02 02:09:19;;;;;;;63.80;37.78;;;2.70;99.90;;;;;;5085989;28;20056;-78
2023/03/02 02:11:45;;;;;;;60.30;35.78;;;2.70;99.90;;;;;;5083899;28;20483;-78
2023/03/02 02:14:11;;;;;;;62.35;36.47;;;2.70;99.90;;;;;;5083615;28;20044;-78
2023/03/02 02:16:38;;;;;;;58.85;36.10;;;2.70;99.90;;;;;;5087396;28;20040;-78
2023/03/02 02:19:29;;;;;;;63.35;37.65;;;2.70;99.90;;;;;;5086569;28;20044;-78
2023/03/02 02:21:55;;;;;;;63.28;35.83;;;2.80;99.90;;;;;;5091147;28;20076;-78
2023/03/02 02:24:29;;;;;;;58.95;33.67;;;2.70;99.90;;;;;;5091935;28;20127;-78
2023/03/02 02:26:56;;;;;;;57.33;33.60;;;2.70;99.90;;;;;;5091506;28;20123;-78
2023/03/02 02:29:35;;;;;;;63.85;36.78;;;2.70;99.90;;;;;;5087029;28;20040;-78
2023/03/02 02:32:12;;;;;;;61.92;35.40;;;2.60;99.90;;;;;;5086650;28;20055;-78
2023/03/02 02:35:00;;;;;;;66.88;36.65;;;2.60;99.90;;;;;;5084097;28;20119;-78
2023/03/02 02:37:34;;;;;;;69.20;37.33;;;2.60;99.90;;;;;;5081079;28;20044;-77
2023/03/02 02:40:06;;;;;;;69.43;35.92;;;2.60;99.90;;;;;;5083363;28;20403;-78
2023/03/02 02:42:44;;;;;;;69.10;36.80;;;2.60;99.90;;;;;;5090455;28;20479;-78
2023/03/02 02:45:30;;;;;;;67.43;37.28;;;2.60;99.90;;;;;;5091358;28;20056;-78
2023/03/02 02:47:57;;;;;;;66.05;36.40;;;2.50;99.90;;;;;;5085650;28;20139;-78
2023/03/02 02:50:30;;;;;;;66.13;36.88;;;2.50;99.90;;;;;;5087701;28;20097;-78
2023/03/02 02:53:11;;;;;;;67.20;37.53;;;2.40;99.90;;;;;;5092672;28;20047;-78
2023/03/02 02:55:38;;;;;;;69.60;36.00;;;2.40;99.90;;;;;;5089656;28;20372;-78
2023/03/02 02:58:24;;;;;;;65.68;34.35;;;2.50;99.90;;;;;;5088141;28;20055;-78
2023/03/02 03:00:50;;;;;;;56.50;34.03;;;2.50;99.90;;;;;;5092583;28;20479;-78
2023/03/02 03:03:36;;;;;;;64.22;35.67;;;2.50;99.90;;;;;;5087631;28;20048;-78
2023/03/02 03:06:06;;;;;;;59.45;33.65;;;2.40;99.90;;;;;;5085373;28;20050;-78
2023/03/02 03:08:44;;;;;;;64.50;36.05;;;2.40;99.90;;;;;;5090383;28;20056;-78
2023/03/02 03:11:18;;;;;;;68.30;36.78;;;2.50;99.90;;;;;;5091953;28;20511;-78
2023/03/02 03:13:45;;;;;;;74.15;37.03;;;2.50;99.90;;;;;;5091132;28;20043;-78
2023/03/02 03:16:14;;;;;;;;;;;2.40;99.90;;;;;;5084797;28;20044;-78
2023/03/02 03:18:45;;;;;;;69.78;35.85;;;2.40;99.90;;;;;;5091643;28;19923;-78
2023/03/02 03:21:11;;;;;;;71.72;36.10;;;2.40;99.90;;;;;;5091260;28;20429;-79
2023/03/02 03:23:37;;;;;;;75.97;37.78;;;2.40;99.90;;;;;;5092516;28;20094;-79
2023/03/02 03:26:04;;;;;;;88.57;38.55;;;2.40;99.90;;;;;;5090019;28;20143;-79
2023/03/02 03:28:30;;;;;;;88.68;38.28;;;2.40;99.90;;;;;;5091025;28;20044;-79
2023/03/02 03:30:56;;;;;;;82.75;39.10;;;2.40;99.90;;;;;;5090060;28;20422;-78
2023/03/02 03:33:22;;;;;;;91.18;39.35;;;2.40;99.90;;;;;;5084081;28;20048;-79
2023/03/02 03:35:48;;;;;;;91.53;38.55;;;2.40;99.90;;;;;;5088892;28;20066;-79
2023/03/02 03:38:14;;;;;;;82.43;39.28;;;2.40;99.90;;;;;;5075473;28;20048;-79
2023/03/02 03:40:39;;;;;;;90.38;37.92;;;2.30;99.90;;;;;;5087350;28;20042;-79
2023/03/02 03:43:05;;;;;;;89.20;39.33;;;2.30;99.90;;;;;;5087314;28;20487;-79
2023/03/02 03:45:31;;;;;;;91.85;38.55;;;2.30;99.90;;;;;;5088636;28;20050;-79
2023/03/02 03:47:57;;;;;;;87.85;37.97;;;2.30;99.90;;;;;;5088794;28;20047;-79
2023/03/02 03:50:24;;;;;;;89.97;39.13;;;2.30;99.90;;;;;;5086699;28;20032;-79
2023/03/02 03:52:49;;;;;;;83.57;38.75;;;2.30;99.90;;;;;;5087517;28;20040;-79
2023/03/02 03:55:15;;;;;;;84.75;39.30;;;2.20;99.90;;;;;;5084540;28;20059;-79
2023/03/02 03:57:41;;;;;;;77.32;38.60;;;2.30;99.90;;;;;;5090464;28;20051;-78
2023/03/02 04:00:10;;;;;;;82.85;37.72;;;2.30;99.90;;;;;;5087522;28;20056;-78
2023/03/02 04:02:36;;;;;;;84.68;37.40;;;2.30;99.90;;;;;;5086894;28;20089;-79
2023/03/02 04:05:06;;;;;;;138.55;42.53;;;2.30;99.90;;;;;;5087543;28;20096;-79
2023/03/02 04:07:33;;;;;;;101.78;38.67;;;2.20;99.90;;;;;;5091312;28;20490;-79
2023/03/02 04:10:02;;;;;;;92.07;36.90;;;2.30;99.90;;;;;;5085429;28;20048;-74
2023/03/02 04:12:31;;;;;;;91.90;38.42;;;2.20;99.90;;;;;;5088185;28;20310;-76
2023/03/02 04:14:57;;;;;;;98.88;37.72;;;2.20;99.90;;;;;;5088744;28;20048;-76
2023/03/02 04:17:23;;;;;;;100.95;39.75;;;2.20;99.90;;;;;;5087955;28;20043;-76
2023/03/02 04:19:48;;;;;;;92.38;37.85;;;2.30;99.90;;;;;;5088990;28;20036;-76
2023/03/02 04:22:15;;;;;;;93.85;38.22;;;2.20;99.90;;;;;;5089020;28;20079;-76
2023/03/02 04:24:41;;;;;;;89.78;38.80;;;2.20;99.90;;;;;;5084885;28;20052;-77
2023/03/02 04:27:06;;;;;;;81.07;37.65;;;2.20;99.90;;;;;;5088835;28;20044;-76
2023/03/02 04:29:32;;;;;;;83.72;35.90;;;2.20;99.90;;;;;;5086594;28;20547;-76
2023/03/02 04:31:58;;;;;;;90.38;37.30;;;2.10;99.90;;;;;;5087710;28;20403;-76
2023/03/02 04:34:26;;;;;;;121.40;38.88;;;2.20;99.90;;;;;;5086692;28;20067;-76
2023/03/02 04:36:53;;;;;;;91.95;36.83;;;2.10;99.90;;;;;;5085281;28;20045;-76
2023/03/02 04:39:19;;;;;;;96.35;37.97;;;2.00;99.90;;;;;;5088209;28;20137;-76
2023/03/02 04:41:46;;;;;;;110.18;39.10;;;2.00;99.90;;;;;;5085018;28;20119;-79
2023/03/02 04:44:12;;;;;;;103.93;38.00;;;2.00;99.90;;;;;;5080583;28;20062;-79
2023/03/02 04:46:38;;;;;;;79.40;36.20;;;2.00;99.90;;;;;;5089652;28;20051;-79
2023/03/02 04:49:05;;;;;;;90.95;39.03;;;2.00;99.90;;;;;;5089330;28;20415;-78
2023/03/02 04:51:34;;;;;;;91.15;36.97;;;2.00;99.90;;;;;;5088986;28;20043;-79
2023/03/02 04:54:04;;;;;;;93.43;39.88;;;2.00;99.90;;;;;;5088498;28;20040;-79
2023/03/02 04:56:31;;;;;;;91.47;37.42;;;2.00;99.90;;;;;;5088007;28;20074;-79
2023/03/02 04:58:57;;;;;;;73.93;36.88;;;2.00;99.90;;;;;;5088276;28;20129;-79
2023/03/02 05:01:23;;;;;;;81.40;37.08;;;2.00;99.90;;;;;;5086421;28;20065;-79
2023/03/02 05:03:49;;;;;;;74.40;35.70;;;2.00;99.90;;;;;;5090307;28;20058;-79
2023/03/02 05:06:15;;;;;;;72.30;36.75;;;2.00;99.90;;;;;;5087993;28;20114;-79
2023/03/02 05:08:42;;;;;;;78.72;35.55;;;2.00;99.90;;;;;;5090323;28;20044;-79
2023/03/02 05:11:12;;;;;;;87.03;37.10;;;2.10;99.90;;;;;;5088913;28;20047;-79
2023/03/02 05:13:38;;;;;;;83.43;36.60;;;2.00;99.90;;;;;;5090482;28;20059;-79
2023/03/02 05:16:04;;;;;;;77.22;35.67;;;2.10;99.90;;;;;;5083792;28;20036;-78
2023/03/02 05:18:30;;;;;;;92.45;41.25;;;2.00;99.90;;;;;;5088275;28;20376;-79
2023/03/02 05:20:56;;;;;;;110.35;41.60;;;2.10;99.90;;;;;;5088111;28;20416;-79
2023/03/02 05:23:25;;;;;;;150.30;41.45;;;2.10;99.90;;;;;;5081262;28;20295;-79
2023/03/02 05:25:53;;;;;;;125.43;39.70;;;2.10;99.90;;;;;;5086743;28;20127;-79
2023/03/02 05:28:20;;;;;;;94.63;38.00;;;2.10;99.90;;;;;;5088391;28;20114;-79
2023/03/02 05:30:47;;;;;;;88.00;39.33;;;2.10;99.90;;;;;;5087161;28;20118;-78
2023/03/02 05:33:13;;;;;;;79.68;37.50;;;2.10;99.90;;;;;;5083024;28;20050;-79
2023/03/02 05:35:39;;;;;;;73.72;37.40;;;2.10;99.90;;;;;;5087471;28;20032;-78
2023/03/02 05:38:05;;;;;;;90.50;39.00;;;2.00;99.90;;;;;;5080009;28;20138;-79
2023/03/02 05:40:31;;;;;;;86.15;37.75;;;2.00;99.90;;;;;;5086242;28;20122;-79
2023/03/02 05:42:57;;;;;;;107.97;39.92;;;2.00;99.90;;;;;;5080819;28;20391;-79
2023/03/02 05:45:27;;;;;;;102.85;38.75;;;2.00;99.90;;;;;;5087602;28;20044;-79
2023/03/02 05:47:53;;;;;;;91.50;40.22;;;2.00;99.90;;;;;;5087134;28;20047;-79
2023/03/02 05:50:19;;;;;;;86.35;37.05;;;2.00;99.90;;;;;;5083016;28;20040;-78
2023/03/02 05:52:45;;;;;;;80.32;37.22;;;2.00;99.90;;;;;;5087635;28;20040;-79
2023/03/02 05:55:12;;;;;;;92.38;37.33;;;2.00;99.90;;;;;;5090917;28;20063;-79
2023/03/02 05:57:38;;;;;;;116.35;38.78;;;2.00;99.90;;;;;;5093692;28;20044;-79
2023/03/02 06:00:05;;;;;;;107.28;38.53;;;1.90;99.90;;;;;;5088812;28;20456;-78
2023/03/02 06:02:31;;;;;;;99.63;36.58;;;1.90;99.90;;;;;;5087735;28;20044;-78
2023/03/02 06:04:57;;;;;;;81.45;38.28;;;1.90;99.90;;;;;;5091276;28;20071;-79
2023/03/02 06:07:22;;;;;;;99.80;40.88;;;1.90;99.90;;;;;;5089521;28;20364;-79
2023/03/02 06:09:49;;;;;;;84.25;37.95;;;1.80;99.90;;;;;;5087155;28;20036;-78
2023/03/02 06:12:16;;;;;;;74.38;37.55;;;1.90;99.90;;;;;;5088227;28;20037;-78
2023/03/02 06:14:43;;;;;;;87.13;37.95;;;1.90;99.90;;;;;;5090179;28;20044;-78
2023/03/02 06:17:09;;;;;;;80.60;39.28;;;1.90;99.90;;;;;;5091881;28;20052;-78
2023/03/02 06:19:35;;;;;;;83.60;39.83;;;1.90;99.90;;;;;;5078194;28;20391;-78
2023/03/02 06:22:01;;;;;;;106.18;41.03;;;1.90;99.90;;;;;;5091988;28;20044;-79
2023/03/02 06:24:26;;;;;;;98.22;41.25;;;1.90;99.90;;;;;;5092767;28;20116;-79
2023/03/02 06:26:53;;;;;;;119.47;42.42;;;1.90;99.90;;;;;;5092464;28;20094;-79
2023/03/02 06:29:20;;;;;;;142.65;43.33;;;1.90;99.90;;;;;;5085350;28;20394;-79
2023/03/02 06:31:45;;;;;;;109.40;41.42;;;1.90;99.90;;;;;;5087943;28;20088;-79
2023/03/02 06:34:11;;;;;;;113.75;40.50;;;1.90;99.90;;;;;;5081718;28;22166;-79
2023/03/02 06:36:37;;;;;;;100.95;40.90;;;1.80;99.90;;;;;;5086857;28;20528;-79
2023/03/02 06:39:04;;;;;;;90.00;39.08;;;1.80;99.90;;;;;;5091110;28;20407;-79
2023/03/02 06:41:32;;;;;;;74.80;36.63;;;1.90;99.90;;;;;;5089875;28;20491;-79
2023/03/02 06:44:00;;;;;;;86.40;37.75;;;1.80;99.90;;;;;;5086285;28;20054;-79
2023/03/02 06:46:26;;;;;;;97.95;38.53;;;1.80;99.90;;;;;;5093622;28;20039;-78
2023/03/02 06:48:51;;;;;;;89.15;38.08;;;1.80;99.90;;;;;;5088646;28;20391;-79
2023/03/02 06:51:18;;;;;;;83.00;37.20;;;1.80;99.90;;;;;;5091067;28;20046;-79
2023/03/02 06:53:43;;;;;;;93.45;37.25;;;1.70;99.90;;;;;;5089457;28;20483;-77
2023/03/02 06:56:09;;;;;;;114.75;41.22;;;1.70;99.90;;;;;;5092471;28;20032;-76
2023/03/02 06:58:35;;;;;;;108.97;40.25;;;1.80;99.90;;;;;;5084786;28;20856;-78
2023/03/02 07:01:01;;;;;;;90.55;39.30;;;1.80;99.90;;;;;;5085214;28;20127;-79
2023/03/02 07:03:27;;;;;;;97.57;39.05;;;1.80;99.90;;;;;;5091758;28;20147;-78
2023/03/02 07:05:53;;;;;;;108.85;40.10;;;1.80;99.90;;;;;;5086306;28;20044;-78
2023/03/02 07:08:19;;;;;;;105.80;38.72;;;1.80;99.90;;;;;;5087348;28;20040;-78
2023/03/02 07:10:45;;;;;;;118.72;41.50;;;1.80;99.90;;;;;;5088653;28;20028;-77
2023/03/02 07:13:11;;;;;;;120.60;40.13;;;1.70;99.90;;;;;;5089251;28;20415;-80
2023/03/02 07:15:39;;;;;;;76.90;37.28;;;1.80;99.90;;;;;;5093526;28;20032;-80
2023/03/02 07:18:05;;;;;;;95.78;39.92;;;1.90;99.90;;;;;;5090811;28;20044;-80
2023/03/02 07:20:31;;;;;;;100.18;40.67;;;1.80;99.90;;;;;;5090568;28;20031;-80
2023/03/02 07:22:57;;;;;;;112.82;39.25;;;1.90;99.90;;;;;;5093018;28;20044;-80
2023/03/02 07:25:22;;;;;;;105.65;41.15;;;1.90;99.90;;;;;;5092263;28;20059;-79
2023/03/02 07:27:48;;;;;;;129.35;41.53;;;1.90;99.90;;;;;;5093134;28;20032;-79
2023/03/02 07:30:14;;;;;;;104.50;39.80;;;1.90;99.90;;;;;;5092519;28;20463;-79
2023/03/02 07:32:41;;;;;;;106.40;41.58;;;1.90;99.90;;;;;;5086671;27;20036;-79
2023/03/02 07:35:07;;;;;;;120.70;39.17;;;1.90;99.90;;;;;;5088973;28;20099;-80
2023/03/02 07:37:33;;;;;;;86.07;38.42;;;1.90;99.90;;;;;;5091085;28;20067;-80
2023/03/02 07:39:58;;;;;;;85.20;37.67;;;1.90;99.90;;;;;;5092857;28;20070;-80
2023/03/02 07:42:24;;;;;;;113.50;41.22;;;2.00;99.90;;;;;;5089485;28;20786;-80
2023/03/02 07:44:52;;;;;;;114.97;41.53;;;2.00;99.90;;;;;;5093035;28;20129;-80
2023/03/02 07:47:18;;;;;;;104.30;41.75;;;2.00;99.90;;;;;;5091061;28;20036;-80
2023/03/02 07:49:44;;;;;;;92.65;39.33;;;2.00;99.90;;;;;;5090825;28;20039;-80
2023/03/02 07:52:10;;;;;;;87.07;38.78;;;2.00;99.90;;;;;;5084553;28;20045;-80
2023/03/02 07:54:36;;;;;;;82.93;38.80;;;2.00;99.90;;;;;;5089186;28;20044;-80
2023/03/02 07:57:01;;;;;;;71.28;36.53;;;2.00;99.90;;;;;;5087846;28;20066;-79
2023/03/02 07:59:28;;;;;;;81.07;36.55;;;2.00;99.90;;;;;;5090743;28;20044;-78
2023/03/02 08:01:55;;;;;;;76.78;37.08;;;2.10;99.90;;;;;;5085833;28;20092;-80
2023/03/02 08:04:21;;;;;;;65.97;35.35;;;2.10;99.90;;;;;;5087409;28;20048;-79
2023/03/02 08:06:47;;;;;;;76.45;36.35;;;2.10;99.90;;;;;;5090235;28;20040;-79
2023/03/02 08:09:13;;;;;;;66.53;36.10;;;2.10;99.90;;;;;;5079040;28;20044;-79
2023/03/02 08:11:39;;;;;;;80.43;36.20;;;2.10;99.90;;;;;;5086262;28;20364;-79
2023/03/02 08:14:04;;;;;;;72.40;35.50;;;2.20;99.90;;;;;;5088111;28;20050;-80
2023/03/02 08:16:30;;;;;;;69.55;35.13;;;2.20;99.90;;;;;;5088495;28;20138;-79
2023/03/02 08:18:56;;;;;;;91.03;34.92;;;2.10;99.90;;;;;;5090346;28;20032;-80
2023/03/02 08:21:24;;;;;;;87.13;35.70;;;2.10;99.90;;;;;;5089646;28;20036;-79
2023/03/02 08:23:50;;;;;;;75.72;34.17;;;2.10;99.90;;;;;;5088350;28;20079;-80
2023/03/02 08:26:18;;;;;;;71.75;35.55;;;2.10;99.90;;;;;;5089749;28;20438;-80
2023/03/02 08:28:45;;;;;;;77.28;37.20;;;2.10;99.90;;;;;;5085418;28;20047;-80
2023/03/02 08:31:12;;;;;;;63.13;36.35;;;2.20;99.90;;;;;;5083356;28;20036;-79
2023/03/02 08:33:38;;;;;;;114.05;50.50;;;2.20;99.90;;;;;;5087674;28;20403;-80
2023/03/02 08:36:11;;;;;;;77.32;35.75;;;2.20;99.90;;;;;;5085861;28;20036;-78
2023/03/02 08:38:37;;;;;;;71.15;34.78;;;2.20;99.90;;;;;;5085221;28;20058;-78
2023/03/02 08:41:05;;;;;;;60.38;32.30;;;2.20;99.90;;;;;;5086998;28;20119;-76
2023/03/02 08:43:31;;;;;;;65.85;32.35;;;2.20;99.90;;;;;;5079315;28;20139;-76
2023/03/02 08:45:57;;;;;;;60.42;32.90;;;2.20;99.90;;;;;;5087709;28;20126;-82
2023/03/02 08:48:23;;;;;;;55.78;32.28;;;2.20;99.90;;;;;;5086308;28;20044;-91
2023/03/02 08:51:01;;;;;;;75.43;32.83;;;2.20;99.90;;;;;;5085535;28;20032;-80
2023/03/02 08:53:27;;;;;;;;;;;2.30;99.90;;;;;;5084056;28;20062;-83
2023/03/02 08:55:53;;;;;;;47.10;29.05;;;2.30;99.90;;;;;;5088814;28;19927;-80
2023/03/02 08:58:19;;;;;;;44.03;28.85;;;2.30;99.90;;;;;;5079566;28;20060;-82
2023/03/02 09:00:45;;;;;;;40.42;27.55;;;2.40;99.90;;;;;;5087800;28;20131;-84
2023/03/02 09:03:11;;;;;;;44.08;28.80;;;2.50;99.90;;;;;;5089097;28;20485;-76
2023/03/02 09:05:38;;;;;;;51.92;32.00;;;2.50;99.90;;;;;;5089761;28;20487;-81
2023/03/02 09:08:04;;;;;;;54.30;31.60;;;2.50;99.90;;;;;;5089082;28;20062;-84
2023/03/02 09:10:30;;;;;;;48.05;30.58;;;2.50;99.90;;;;;;5084867;28;20052;-86
2023/03/02 09:12:55;;;;;;;49.20;29.92;;;2.50;99.90;;;;;;5089971;28;20035;-86
2023/03/02 09:15:21;;;;;;;44.78;30.90;;;2.50;99.90;;;;;;5090115;28;20056;-86
2023/03/02 09:17:47;;;;;;;46.60;31.27;;;2.50;99.90;;;;;;5089438;28;20036;-85
2023/03/02 09:20:13;;;;;;;47.83;30.90;;;2.60;99.90;;;;;;5087079;28;20395;-89
2023/03/02 09:22:39;;;;;;;45.95;29.75;;;2.60;99.90;;;;;;5076772;28;20037;-84
2023/03/02 09:25:05;;;;;;;51.22;35.88;;;2.60;99.90;;;;;;5086494;28;20043;-80
2023/03/02 09:27:31;;;;;;;46.80;31.45;;;2.70;99.90;;;;;;5085542;28;20427;-82
2023/03/02 09:29:57;;;;;;;41.85;29.15;;;2.80;99.90;;;;;;5089147;28;20055;-83
2023/03/02 09:32:23;;;;;;;41.55;29.27;;;2.90;99.90;;;;;;5090099;28;20032;-82
2023/03/02 09:34:49;;;;;;;40.03;28.30;;;2.90;99.90;;;;;;5090189;28;20061;-80
2023/03/02 09:37:15;;;;;;;39.13;28.58;;;3.00;99.90;;;;;;5091092;28;20073;-78
2023/03/02 09:39:40;;;;;;;42.38;29.20;;;3.00;99.90;;;;;;5085305;28;20056;-77
2023/03/02 09:42:21;;;;;;;43.50;29.98;;;3.10;99.90;;;;;;5083334;28;20040;-82
2023/03/02 09:45:02;;;;;;;48.63;32.30;;;3.10;99.90;;;;;;5086407;28;20510;-82
2023/03/02 09:47:49;;;;;;;38.63;28.30;;;3.10;99.90;;;;;;5079333;28;20647;-80
2023/03/02 09:50:32;;;;;;;;;;;3.20;99.90;;;;;;5095427;28;20044;-84
2023/03/02 09:53:26;;;;;;;39.00;27.88;;;3.30;99.90;;;;;;5109169;28;19926;-82
2023/03/02 09:55:59;;;;;;;37.80;27.05;;;3.30;99.90;;;;;;5092284;28;20520;-82
2023/03/02 09:58:33;;;;;;;38.13;27.52;;;3.30;99.90;;;;;;5083788;28;20044;-82
2023/03/02 10:01:02;;;;;;;34.53;26.65;;;3.30;99.90;;;;;;5089852;28;20492;-83
2023/03/02 10:03:38;;;;;;;36.33;27.17;;;3.20;99.90;;;;;;5090701;28;20044;-83
2023/03/02 10:06:04;;;;;;;38.13;27.23;;;3.20;99.90;;;;;;5089107;28;20127;-84
2023/03/02 10:08:35;;;;;;;40.92;29.67;;;3.20;99.90;;;;;;5085136;28;20260;-83
2023/03/02 10:11:19;;;;;;;38.55;28.33;;;3.30;99.90;;;;;;5089440;28;20044;-83
2023/03/02 10:13:54;;;;;;;37.28;28.60;;;3.40;99.90;;;;;;5078691;28;20101;-81
2023/03/02 10:16:58;;;;;;;36.35;27.60;;;3.40;99.90;;;;;;5072958;28;20067;-83
2023/03/02 10:19:31;;;;;;;38.00;28.30;;;3.50;99.90;;;;;;5047067;28;20048;-77
2023/03/02 10:22:11;;;;;;;38.65;28.48;;;3.60;99.90;;;;;;5089012;28;20122;-80
2023/03/02 10:24:54;;;;;;;37.85;28.30;;;3.60;99.90;;;;;;5089219;28;20119;-81
2023/03/02 10:27:35;;;;;;;34.22;25.77;;;3.70;99.90;;;;;;5091773;28;20116;-79
2023/03/02 10:30:06;;;;;;;35.92;26.95;;;3.70;99.90;;;;;;5084424;28;20055;-78
2023/03/02 10:32:36;;;;;;;33.83;26.10;;;3.80;99.90;;;;;;5083997;28;20039;-80
2023/03/02 10:35:15;;;;;;;35.42;28.08;;;3.80;99.90;;;;;;5066743;28;20459;-80
2023/03/02 10:37:41;;;;;;;39.70;28.95;;;3.90;99.90;;;;;;5070700;28;20051;-78
2023/03/02 10:40:20;;;;;;;35.33;27.63;;;3.90;99.90;;;;;;5077999;28;20482;-77
2023/03/02 10:42:47;;;;;;;39.83;28.77;;;3.90;99.90;;;;;;5086232;28;20066;-80
2023/03/02 10:45:25;;;;;;;37.90;29.17;;;3.90;99.90;;;;;;5092145;28;20052;-77
2023/03/02 10:48:04;;;;;;;38.75;28.45;;;3.90;99.90;;;;;;5090747;28;20048;-77
2023/03/02 10:50:31;;;;;;;35.78;27.02;;;3.90;99.90;;;;;;5090808;28;20044;-78
2023/03/02 10:52:57;;;;;;;37.83;29.15;;;3.80;99.90;;;;;;5094161;28;20055;-75
2023/03/02 10:55:23;;;;;;;38.22;28.27;;;3.90;99.90;;;;;;5090947;28;20051;-77
2023/03/02 10:58:06;;;;;;;35.70;27.42;;;3.90;99.90;;;;;;5092282;28;20089;-76
2023/03/02 11:00:33;;;;;;;39.50;29.08;;;3.90;99.90;;;;;;5072434;28;20518;-75
2023/03/02 11:03:20;;;;;;;39.08;28.67;;;3.80;99.90;;;;;;5071977;28;20094;-78
2023/03/02 11:05:46;;;;;;;38.28;29.90;;;3.70;99.90;;;;;;5072869;28;20077;-75
2023/03/02 11:08:26;;;;;;;36.80;27.80;;;3.60;99.90;;;;;;5085620;28;20098;-78
2023/03/02 11:11:02;;;;;;;35.78;28.52;;;3.70;99.90;;;;;;5089956;28;20363;-76
2023/03/02 11:13:38;;;;;;;38.20;27.88;;;3.70;99.90;;;;;;5090190;28;20040;-81
2023/03/02 11:16:22;;;;;;;36.60;28.15;;;3.70;99.90;;;;;;5092794;28;20036;-75
2023/03/02 11:19:04;;;;;;;32.90;27.55;;;3.70;99.90;;;;;;5091866;28;20036;-76
2023/03/02 11:21:51;;;;;;;35.63;27.10;;;3.80;99.90;;;;;;5081972;28;20123;-73
2023/03/02 11:24:49;;;;;;;35.47;26.88;;;3.80;99.90;;;;;;5085185;28;20089;-76
2023/03/02 11:27:21;;;;;;;34.55;26.85;;;3.90;99.90;;;;;;5081723;28;20051;-82
2023/03/02 11:30:21;;;;;;;34.60;25.92;;;4.00;99.90;;;;;;5075103;28;20044;-81
2023/03/02 11:32:56;;;;;;;31.65;25.52;;;4.00;99.90;;;;;;5086593;28;20055;-80
2023/03/02 11:35:37;;;;;;;33.28;25.50;;;4.10;99.90;;;;;;5088917;28;20496;-86
2023/03/02 11:38:15;;;;;;;31.30;25.33;;;4.20;99.90;;;;;;5082914;28;20048;-82
2023/03/02 11:40:46;;;;;;;36.00;26.70;;;4.30;99.90;;;;;;5093255;28;20064;-85
2023/03/02 11:43:12;;;;;;;34.60;29.65;;;4.40;99.90;;;;;;5085499;28;20078;-82
2023/03/02 11:46:06;;;;;;;32.80;26.90;;;4.40;99.90;;;;;;5086662;28;20097;-82
2023/03/02 11:48:41;;;;;;;34.63;26.45;;;4.60;99.90;;;;;;5076003;28;20044;-79
2023/03/02 11:51:23;;;;;;;31.88;27.23;;;4.60;99.90;;;;;;5081798;28;20468;-81
2023/03/02 11:53:56;;;;;;;30.75;25.52;;;4.70;99.90;;;;;;5088702;28;20039;-80
2023/03/02 11:56:23;;;;;;;32.20;26.98;;;4.80;99.90;;;;;;5089200;28;20044;-78
2023/03/02 11:58:55;;;;;;;37.92;27.92;;;4.80;99.90;;;;;;5090824;28;20063;-80
2023/03/02 12:01:24;;;;;;;30.80;25.98;;;4.90;99.90;;;;;;5088241;28;20062;-84
2023/03/02 12:03:51;;;;;;;31.60;26.10;;;4.90;99.90;;;;;;5088581;28;20047;-83
2023/03/02 12:06:20;;;;;;;30.87;26.23;;;4.90;99.90;;;;;;5085787;28;20036;-85
2023/03/02 12:08:48;;;;;;;32.17;26.98;;;4.90;99.90;;;;;;5084004;28;20052;-82
2023/03/02 12:11:17;;;;;;;32.97;25.08;;;4.90;99.90;;;;;;5087400;28;20040;-85
2023/03/02 12:13:58;;;;;;;32.20;27.17;;;4.80;99.90;;;;;;5087679;28;20046;-89
2023/03/02 12:16:44;;;;;;;32.85;26.85;;;4.80;99.90;;;;;;5091046;28;20040;-80
2023/03/02 12:19:16;;;;;;;39.20;28.85;;;4.90;99.90;;;;;;5086309;28;20094;-82
2023/03/02 12:21:54;;;;;;;32.08;25.83;;;5.00;99.90;;;;;;5087944;28;20075;-83
2023/03/02 12:24:42;;;;;;;29.80;25.98;;;5.20;99.90;;;;;;5089571;28;20075;-79
2023/03/02 12:27:23;;;;;;;29.40;24.95;;;5.10;99.90;;;;;;5086808;28;20097;-79
2023/03/02 12:29:54;;;;;;;30.48;25.38;;;5.10;99.90;;;;;;5083866;28;20453;-84
2023/03/02 12:32:28;;;;;;;30.95;25.52;;;4.90;99.90;;;;;;5083207;28;20032;-79
2023/03/02 12:34:54;;;;;;;33.53;27.55;;;4.80;99.90;;;;;;5087814;28;20056;-88
2023/03/02 12:37:28;;;;;;;34.15;26.65;;;4.80;99.90;;;;;;5088135;28;20375;-80
2023/03/02 12:40:32;;;;;;;37.05;27.67;;;4.80;99.90;;;;;;5085390;28;20068;-78
2023/03/02 12:43:19;;;;;;;35.70;27.27;;;4.90;99.90;;;;;;5087605;28;20479;-77
2023/03/02 12:46:07;;;;;;;33.85;26.10;;;4.90;99.90;;;;;;5088517;28;20487;-82
2023/03/02 12:48:40;;;;;;;31.13;26.27;;;4.90;99.90;;;;;;5076714;28;20052;-83